sensor_id;sensor_type;location;lat;lon;timestamp;pressure;altitude;pressure_sealevel;temperature;humidity
70684;BME280;58263;48.146;11.440;2024-01-25T00:01:49;96686.91;;;7.17;80.06
70684;BME280;58263;48.146;11.440;2024-01-25T00:04:15;96675.00;;;7.20;80.14
70684;BME280;58263;48.146;11.440;2024-01-25T00:06:40;96670.03;;;7.17;79.87
70684;BME280;58263;48.146;11.440;2024-01-25T00:09:05;96683.75;;;7.14;80.65
70684;BME280;58263;48.146;11.440;2024-01-25T00:11:30;96676.47;;;7.07;80.91
70684;BME280;58263;48.146;11.440;2024-01-25T00:13:57;96677.75;;;7.11;81.41
70684;BME280;58263;48.146;11.440;2024-01-25T00:16:22;96681.28;;;7.12;81.66
70684;BME280;58263;48.146;11.440;2024-01-25T00:18:48;96688.53;;;7.18;81.98
70684;BME280;58263;48.146;11.440;2024-01-25T00:21:13;96669.41;;;7.15;81.97
70684;BME280;58263;48.146;11.440;2024-01-25T00:23:38;96669.75;;;7.11;82.37
70684;BME280;58263;48.146;11.440;2024-01-25T00:26:03;96675.94;;;7.12;82.33
70684;BME280;58263;48.146;11.440;2024-01-25T00:28:29;96674.47;;;7.09;81.69
70684;BME280;58263;48.146;11.440;2024-01-25T00:30:54;96674.09;;;7.13;82.14
70684;BME280;58263;48.146;11.440;2024-01-25T00:33:19;96674.09;;;7.13;82.03
70684;BME280;58263;48.146;11.440;2024-01-25T00:35:45;96677.75;;;7.11;81.90
70684;BME280;58263;48.146;11.440;2024-01-25T00:38:10;96679.00;;;7.09;81.70
70684;BME280;58263;48.146;11.440;2024-01-25T00:40:36;96673.66;;;7.09;81.98
70684;BME280;58263;48.146;11.440;2024-01-25T00:43:02;96678.63;;;7.12;81.37
70684;BME280;58263;48.146;11.440;2024-01-25T00:45:27;96674.75;;;7.15;80.92
70684;BME280;58263;48.146;11.440;2024-01-25T00:47:53;96668.75;;;7.13;80.65
70684;BME280;58263;48.146;11.440;2024-01-25T00:50:19;96666.66;;;7.08;81.25
70684;BME280;58263;48.146;11.440;2024-01-25T00:52:47;96663.41;;;7.13;80.75
70684;BME280;58263;48.146;11.440;2024-01-25T00:55:13;96667.47;;;7.08;80.82
70684;BME280;58263;48.146;11.440;2024-01-25T00:57:39;96666.09;;;7.13;80.25
70684;BME280;58263;48.146;11.440;2024-01-25T01:00:05;96670.03;;;7.17;80.08
70684;BME280;58263;48.146;11.440;2024-01-25T01:02:35;96661.75;;;7.11;79.82
70684;BME280;58263;48.146;11.440;2024-01-25T01:05:01;96659.75;;;7.14;80.11
70684;BME280;58263;48.146;11.440;2024-01-25T01:07:26;96666.75;;;7.15;80.30
70684;BME280;58263;48.146;11.440;2024-01-25T01:09:51;96665.91;;;7.14;79.83
70684;BME280;58263;48.146;11.440;2024-01-25T01:12:17;96669.84;;;7.18;79.53
70684;BME280;58263;48.146;11.440;2024-01-25T01:14:43;96684.22;;;7.17;79.59
70684;BME280;58263;48.146;11.440;2024-01-25T01:17:08;96695.53;;;7.19;79.57
70684;BME280;58263;48.146;11.440;2024-01-25T01:19:33;96697.38;;;7.19;79.81
70684;BME280;58263;48.146;11.440;2024-01-25T01:21:59;96709.63;;;7.28;79.09
70684;BME280;58263;48.146;11.440;2024-01-25T01:24:24;96706.66;;;7.23;79.56
70684;BME280;58263;48.146;11.440;2024-01-25T01:26:49;96714.88;;;7.21;79.27
70684;BME280;58263;48.146;11.440;2024-01-25T01:29:16;96717.34;;;7.23;78.74
70684;BME280;58263;48.146;11.440;2024-01-25T01:31:41;96711.16;;;7.22;79.55
70684;BME280;58263;48.146;11.440;2024-01-25T01:34:06;96710.91;;;7.17;79.67
70684;BME280;58263;48.146;11.440;2024-01-25T01:36:31;96705.91;;;7.14;80.46
70684;BME280;58263;48.146;11.440;2024-01-25T01:38:57;96704.09;;;7.15;79.95
70684;BME280;58263;48.146;11.440;2024-01-25T01:41:22;96686.50;;;7.20;79.42
70684;BME280;58263;48.146;11.440;2024-01-25T01:43:47;96695.81;;;7.24;79.87
70684;BME280;58263;48.146;11.440;2024-01-25T01:46:25;96693.03;;;7.18;80.13
70684;BME280;58263;48.146;11.440;2024-01-25T01:48:52;96701.69;;;7.20;79.59
70684;BME280;58263;48.146;11.440;2024-01-25T01:51:18;96696.00;;;7.23;79.96
70684;BME280;58263;48.146;11.440;2024-01-25T01:53:43;96701.97;;;7.25;79.81
70684;BME280;58263;48.146;11.440;2024-01-25T01:56:09;96692.84;;;7.19;80.19
70684;BME280;58263;48.146;11.440;2024-01-25T01:58:34;96688.34;;;7.20;80.31
70684;BME280;58263;48.146;11.440;2024-01-25T02:01:01;96697.19;;;7.20;80.27
70684;BME280;58263;48.146;11.440;2024-01-25T02:03:27;96684.94;;;7.26;79.64
70684;BME280;58263;48.146;11.440;2024-01-25T02:05:52;96686.59;;;7.27;79.47
70684;BME280;58263;48.146;11.440;2024-01-25T02:08:18;96687.34;;;7.21;79.81
70684;BME280;58263;48.146;11.440;2024-01-25T02:10:43;96679.97;;;7.23;80.18
70684;BME280;58263;48.146;11.440;2024-01-25T02:13:08;96682.38;;;7.18;80.57
70684;BME280;58263;48.146;11.440;2024-01-25T02:15:33;96679.44;;;7.13;81.51
70684;BME280;58263;48.146;11.440;2024-01-25T02:17:59;96674.66;;;7.23;80.67
70684;BME280;58263;48.146;11.440;2024-01-25T02:20:25;96669.31;;;7.23;81.04
70684;BME280;58263;48.146;11.440;2024-01-25T02:22:50;96676.56;;;7.14;81.56
70684;BME280;58263;48.146;11.440;2024-01-25T02:25:15;96673.81;;;7.22;81.41
70684;BME280;58263;48.146;11.440;2024-01-25T02:27:40;96684.47;;;7.22;80.97
70684;BME280;58263;48.146;11.440;2024-01-25T02:30:06;96685.78;;;7.11;81.52
70684;BME280;58263;48.146;11.440;2024-01-25T02:32:32;96678.41;;;7.14;81.65
70684;BME280;58263;48.146;11.440;2024-01-25T02:34:57;96669.75;;;7.11;82.02
70684;BME280;58263;48.146;11.440;2024-01-25T02:37:22;96675.56;;;7.15;82.06
70684;BME280;58263;48.146;11.440;2024-01-25T02:39:47;96660.75;;;7.13;81.94
70684;BME280;58263;48.146;11.440;2024-01-25T02:42:13;96661.03;;;7.18;81.71
70684;BME280;58263;48.146;11.440;2024-01-25T02:44:39;96659.38;;;7.17;81.62
70684;BME280;58263;48.146;11.440;2024-01-25T02:47:04;96662.13;;;7.08;82.02
70684;BME280;58263;48.146;11.440;2024-01-25T02:49:29;96660.56;;;7.14;81.75
70684;BME280;58263;48.146;11.440;2024-01-25T02:51:55;96671.69;;;7.18;81.78
70684;BME280;58263;48.146;11.440;2024-01-25T02:54:20;96659.38;;;7.17;82.49
70684;BME280;58263;48.146;11.440;2024-01-25T02:56:45;96659.09;;;7.11;81.94
70684;BME280;58263;48.146;11.440;2024-01-25T02:59:10;96667.09;;;7.11;82.43
70684;BME280;58263;48.146;11.440;2024-01-25T03:01:41;96658.09;;;7.13;82.35
70684;BME280;58263;48.146;11.440;2024-01-25T03:04:07;96662.69;;;7.19;81.95
70684;BME280;58263;48.146;11.440;2024-01-25T03:06:32;96664.06;;;7.15;82.59
70684;BME280;58263;48.146;11.440;2024-01-25T03:08:58;96666.38;;;7.18;81.91
70684;BME280;58263;48.146;11.440;2024-01-25T03:11:23;96661.41;;;7.15;82.76
70684;BME280;58263;48.146;11.440;2024-01-25T03:13:48;96662.03;;;7.17;82.65
70684;BME280;58263;48.146;11.440;2024-01-25T03:16:13;96656.78;;;7.23;82.37
70684;BME280;58263;48.146;11.440;2024-01-25T03:18:39;96653.41;;;7.15;83.00
70684;BME280;58263;48.146;11.440;2024-01-25T03:21:04;96666.09;;;7.13;82.95
70684;BME280;58263;48.146;11.440;2024-01-25T03:23:29;96659.75;;;7.14;82.78
70684;BME280;58263;48.146;11.440;2024-01-25T03:25:55;96662.22;;;7.15;83.37
70684;BME280;58263;48.146;11.440;2024-01-25T03:28:20;96661.03;;;7.18;83.25
70684;BME280;58263;48.146;11.440;2024-01-25T03:30:45;96639.78;;;7.09;83.62
70684;BME280;58263;48.146;11.440;2024-01-25T03:33:10;96635.19;;;7.03;84.01
70684;BME280;58263;48.146;11.440;2024-01-25T03:35:36;96633.28;;;6.97;84.32
70684;BME280;58263;48.146;11.440;2024-01-25T03:38:01;96634.94;;;6.98;84.54
70684;BME280;58263;48.146;11.440;2024-01-25T03:40:26;96634.66;;;7.08;84.07
70684;BME280;58263;48.146;11.440;2024-01-25T03:42:51;96630.69;;;7.04;83.68
70684;BME280;58263;48.146;11.440;2024-01-25T03:45:17;96642.19;;;7.04;83.99
70684;BME280;58263;48.146;11.440;2024-01-25T03:47:42;96631.31;;;7.06;83.51
70684;BME280;58263;48.146;11.440;2024-01-25T03:50:08;96638.31;;;7.07;83.03
70684;BME280;58263;48.146;11.440;2024-01-25T03:52:33;96638.50;;;7.05;83.25
70684;BME280;58263;48.146;11.440;2024-01-25T03:54:58;96644.31;;;7.09;82.84
70684;BME280;58263;48.146;11.440;2024-01-25T03:57:23;96650.19;;;7.04;82.82
70684;BME280;58263;48.146;11.440;2024-01-25T03:59:49;96655.13;;;7.07;82.87
70684;BME280;58263;48.146;11.440;2024-01-25T04:02:14;96660.66;;;7.06;83.20
70684;BME280;58263;48.146;11.440;2024-01-25T04:04:39;96660.47;;;7.07;82.75
70684;BME280;58263;48.146;11.440;2024-01-25T04:07:04;96657.19;;;7.05;82.77
70684;BME280;58263;48.146;11.440;2024-01-25T04:09:30;96666.28;;;7.11;83.07
70684;BME280;58263;48.146;11.440;2024-01-25T04:11:55;96671.16;;;7.07;83.18
70684;BME280;58263;48.146;11.440;2024-01-25T04:14:21;96658.84;;;7.06;83.24
70684;BME280;58263;48.146;11.440;2024-01-25T04:16:46;96671.53;;;7.04;83.67
70684;BME280;58263;48.146;11.440;2024-01-25T04:19:12;96681.56;;;7.02;84.37
70684;BME280;58263;48.146;11.440;2024-01-25T04:21:37;96679.06;;;7.01;83.81
70684;BME280;58263;48.146;11.440;2024-01-25T04:24:03;96694.91;;;7.02;84.42
70684;BME280;58263;48.146;11.440;2024-01-25T04:26:29;96691.94;;;6.97;84.27
70684;BME280;58263;48.146;11.440;2024-01-25T04:28:54;96700.06;;;7.04;84.50
70684;BME280;58263;48.146;11.440;2024-01-25T04:31:19;96702.81;;;6.96;85.16
70684;BME280;58263;48.146;11.440;2024-01-25T04:33:45;96704.28;;;6.98;84.50
70684;BME280;58263;48.146;11.440;2024-01-25T04:36:10;96708.16;;;6.96;84.97
70684;BME280;58263;48.146;11.440;2024-01-25T04:38:35;96710.72;;;6.89;85.02
70684;BME280;58263;48.146;11.440;2024-01-25T04:41:01;96724.50;;;7.07;84.21
70684;BME280;58263;48.146;11.440;2024-01-25T04:43:26;96720.44;;;6.97;84.81
70684;BME280;58263;48.146;11.440;2024-01-25T04:45:51;96710.34;;;6.92;84.66
70684;BME280;58263;48.146;11.440;2024-01-25T04:48:17;96709.97;;;6.95;84.53
70684;BME280;58263;48.146;11.440;2024-01-25T04:50:42;96718.34;;;6.92;84.68
70684;BME280;58263;48.146;11.440;2024-01-25T04:53:07;96714.84;;;6.91;84.66
70684;BME280;58263;48.146;11.440;2024-01-25T04:55:32;96716.75;;;6.83;85.34
70684;BME280;58263;48.146;11.440;2024-01-25T04:57:58;96722.75;;;6.85;85.41
70684;BME280;58263;48.146;11.440;2024-01-25T05:00:23;96724.34;;;6.94;85.34
70684;BME280;58263;48.146;11.440;2024-01-25T05:02:49;96733.63;;;6.83;85.58
70684;BME280;58263;48.146;11.440;2024-01-25T05:05:14;96730.00;;;6.91;85.32
70684;BME280;58263;48.146;11.440;2024-01-25T05:07:40;96729.00;;;6.92;85.10
70684;BME280;58263;48.146;11.440;2024-01-25T05:10:05;96731.06;;;6.90;85.61
70684;BME280;58263;48.146;11.440;2024-01-25T05:12:31;96731.31;;;6.95;85.04
70684;BME280;58263;48.146;11.440;2024-01-25T05:14:56;96731.06;;;6.90;85.60
70684;BME280;58263;48.146;11.440;2024-01-25T05:17:21;96745.38;;;6.89;85.49
70684;BME280;58263;48.146;11.440;2024-01-25T05:19:46;96733.34;;;6.93;84.81
70684;BME280;58263;48.146;11.440;2024-01-25T05:22:12;96740.69;;;6.91;85.54
70684;BME280;58263;48.146;11.440;2024-01-25T05:24:37;96747.84;;;6.75;86.21
70684;BME280;58263;48.146;11.440;2024-01-25T05:27:02;96755.47;;;6.79;86.46
70684;BME280;58263;48.146;11.440;2024-01-25T05:29:28;96764.31;;;6.79;86.42
70684;BME280;58263;48.146;11.440;2024-01-25T05:31:53;96762.84;;;6.76;86.73
70684;BME280;58263;48.146;11.440;2024-01-25T05:34:18;96758.13;;;6.79;86.27
70684;BME280;58263;48.146;11.440;2024-01-25T05:36:44;96757.13;;;6.80;86.34
70684;BME280;58263;48.146;11.440;2024-01-25T05:39:09;96750.13;;;6.79;86.28
70684;BME280;58263;48.146;11.440;2024-01-25T05:41:34;96763.66;;;6.77;86.34
70684;BME280;58263;48.146;11.440;2024-01-25T05:44:00;96759.50;;;6.74;86.57
70684;BME280;58263;48.146;11.440;2024-01-25T05:46:25;96761.09;;;6.84;86.14
70684;BME280;58263;48.146;11.440;2024-01-25T05:48:50;96771.06;;;6.90;85.59
70684;BME280;58263;48.146;11.440;2024-01-25T05:51:16;96776.91;;;6.85;85.80
70684;BME280;58263;48.146;11.440;2024-01-25T05:53:41;96780.13;;;6.81;85.68
70684;BME280;58263;48.146;11.440;2024-01-25T05:56:06;96777.81;;;6.77;86.06
70684;BME280;58263;48.146;11.440;2024-01-25T05:58:31;96797.13;;;6.80;86.01
70684;BME280;58263;48.146;11.440;2024-01-25T06:00:57;96789.78;;;6.82;86.20
70684;BME280;58263;48.146;11.440;2024-01-25T06:03:22;96795.06;;;6.90;85.60
70684;BME280;58263;48.146;11.440;2024-01-25T06:05:47;96798.31;;;6.77;85.75
70684;BME280;58263;48.146;11.440;2024-01-25T06:08:13;96797.94;;;6.80;85.90
70684;BME280;58263;48.146;11.440;2024-01-25T06:10:38;96794.53;;;6.71;86.27
70684;BME280;58263;48.146;11.440;2024-01-25T06:13:04;96790.75;;;6.66;86.31
70684;BME280;58263;48.146;11.440;2024-01-25T06:15:29;96803.66;;;6.77;85.45
70684;BME280;58263;48.146;11.440;2024-01-25T06:17:55;96810.28;;;6.81;85.37
70684;BME280;58263;48.146;11.440;2024-01-25T06:20:20;96804.09;;;6.66;85.50
70684;BME280;58263;48.146;11.440;2024-01-25T06:22:45;96814.75;;;6.66;85.32
70684;BME280;58263;48.146;11.440;2024-01-25T06:25:10;96812.53;;;6.69;84.74
70684;BME280;58263;48.146;11.440;2024-01-25T06:27:36;96818.31;;;6.58;85.13
70684;BME280;58263;48.146;11.440;2024-01-25T06:30:01;96823.34;;;6.53;85.06
70684;BME280;58263;48.146;11.440;2024-01-25T06:32:26;96825.38;;;6.51;85.34
70684;BME280;58263;48.146;11.440;2024-01-25T06:34:51;96846.69;;;6.51;85.41
70684;BME280;58263;48.146;11.440;2024-01-25T06:37:18;96850.97;;;6.60;84.91
70684;BME280;58263;48.146;11.440;2024-01-25T06:39:44;96852.94;;;6.58;84.42
70684;BME280;58263;48.146;11.440;2024-01-25T06:42:09;96856.94;;;6.62;83.99
70684;BME280;58263;48.146;11.440;2024-01-25T06:44:34;96853.69;;;6.52;84.41
70684;BME280;58263;48.146;11.440;2024-01-25T06:46:59;96856.28;;;6.60;83.94
70684;BME280;58263;48.146;11.440;2024-01-25T06:49:25;96854.63;;;6.59;83.61
70684;BME280;58263;48.146;11.440;2024-01-25T06:51:50;96848.69;;;6.49;83.89
70684;BME280;58263;48.146;11.440;2024-01-25T06:54:15;96851.06;;;6.43;83.83
70684;BME280;58263;48.146;11.440;2024-01-25T06:56:41;96855.13;;;6.31;84.52
70684;BME280;58263;48.146;11.440;2024-01-25T06:59:06;96856.72;;;6.40;84.21
70684;BME280;58263;48.146;11.440;2024-01-25T07:01:32;96867.88;;;6.44;83.78
70684;BME280;58263;48.146;11.440;2024-01-25T07:03:57;96875.31;;;6.25;84.58
70684;BME280;58263;48.146;11.440;2024-01-25T07:06:23;96874.84;;;6.22;85.22
70684;BME280;58263;48.146;11.440;2024-01-25T07:08:48;96874.72;;;6.15;85.66
70684;BME280;58263;48.146;11.440;2024-01-25T07:11:14;96883.47;;;6.24;85.67
70684;BME280;58263;48.146;11.440;2024-01-25T07:13:40;96890.34;;;6.18;85.66
70684;BME280;58263;48.146;11.440;2024-01-25T07:16:06;96894.50;;;6.21;85.62
70684;BME280;58263;48.146;11.440;2024-01-25T07:18:31;96896.34;;;6.20;85.63
70684;BME280;58263;48.146;11.440;2024-01-25T07:20:56;96895.81;;;6.25;85.38
70684;BME280;58263;48.146;11.440;2024-01-25T07:23:22;96896.28;;;6.29;85.00
70684;BME280;58263;48.146;11.440;2024-01-25T07:25:47;96903.25;;;6.30;85.08
70684;BME280;58263;48.146;11.440;2024-01-25T07:28:12;96899.47;;;6.24;85.59
70684;BME280;58263;48.146;11.440;2024-01-25T07:30:38;96897.41;;;6.03;86.81
70684;BME280;58263;48.146;11.440;2024-01-25T07:33:03;96902.16;;;6.16;85.87
70684;BME280;58263;48.146;11.440;2024-01-25T07:35:29;96905.00;;;6.14;86.31
70684;BME280;58263;48.146;11.440;2024-01-25T07:37:54;96912.81;;;6.16;86.23
70684;BME280;58263;48.146;11.440;2024-01-25T07:40:19;96915.81;;;6.21;86.37
70684;BME280;58263;48.146;11.440;2024-01-25T07:42:46;96923.03;;;6.35;85.47
70684;BME280;58263;48.146;11.440;2024-01-25T07:45:12;96921.66;;;6.48;85.40
70684;BME280;58263;48.146;11.440;2024-01-25T07:47:40;96924.41;;;6.31;86.09
70684;BME280;58263;48.146;11.440;2024-01-25T07:50:06;96924.72;;;6.36;85.72
70684;BME280;58263;48.146;11.440;2024-01-25T07:52:31;96925.97;;;6.49;85.17
70684;BME280;58263;48.146;11.440;2024-01-25T07:54:57;96933.97;;;6.49;84.63
70684;BME280;58263;48.146;11.440;2024-01-25T07:57:22;96943.13;;;6.46;84.18
70684;BME280;58263;48.146;11.440;2024-01-25T07:59:47;96944.63;;;6.49;83.63
70684;BME280;58263;48.146;11.440;2024-01-25T08:02:12;96961.50;;;6.72;81.85
70684;BME280;58263;48.146;11.440;2024-01-25T08:04:38;96947.28;;;6.80;81.66
70684;BME280;58263;48.146;11.440;2024-01-25T08:07:03;96951.19;;;6.69;80.60
70684;BME280;58263;48.146;11.440;2024-01-25T08:09:28;96940.78;;;6.83;80.61
70684;BME280;58263;48.146;11.440;2024-01-25T08:11:54;96945.28;;;6.82;80.24
70684;BME280;58263;48.146;11.440;2024-01-25T08:14:19;96948.00;;;6.97;79.05
70684;BME280;58263;48.146;11.440;2024-01-25T08:16:44;96950.75;;;6.89;79.76
70684;BME280;58263;48.146;11.440;2024-01-25T08:19:10;96941.88;;;7.11;78.98
70684;BME280;58263;48.146;11.440;2024-01-25T08:21:35;96931.28;;;7.03;79.43
70684;BME280;58263;48.146;11.440;2024-01-25T08:24:01;96934.81;;;7.04;78.35
70684;BME280;58263;48.146;11.440;2024-01-25T08:26:27;96937.28;;;7.05;78.79
70684;BME280;58263;48.146;11.440;2024-01-25T08:28:52;96940.66;;;6.99;78.59
70684;BME280;58263;48.146;11.440;2024-01-25T08:31:17;96937.91;;;7.07;78.54
70684;BME280;58263;48.146;11.440;2024-01-25T08:33:43;96936.50;;;6.97;79.35
70684;BME280;58263;48.146;11.440;2024-01-25T08:36:13;96917.06;;;7.11;79.00
70684;BME280;58263;48.146;11.440;2024-01-25T08:38:38;96929.69;;;7.17;78.83
70684;BME280;58263;48.146;11.440;2024-01-25T08:41:04;96932.69;;;7.37;78.09
70684;BME280;58263;48.146;11.440;2024-01-25T08:43:29;96928.44;;;7.28;78.56
70684;BME280;58263;48.146;11.440;2024-01-25T08:45:54;96921.06;;;7.30;77.95
70684;BME280;58263;48.146;11.440;2024-01-25T08:48:20;96915.47;;;7.40;77.56
70684;BME280;58263;48.146;11.440;2024-01-25T08:50:45;96921.97;;;7.22;75.99
70684;BME280;58263;48.146;11.440;2024-01-25T08:53:11;96917.28;;;7.24;75.79
70684;BME280;58263;48.146;11.440;2024-01-25T08:55:36;96922.75;;;7.31;74.82
70684;BME280;58263;48.146;11.440;2024-01-25T08:58:01;96932.22;;;7.34;73.12
70684;BME280;58263;48.146;11.440;2024-01-25T09:00:27;96945.75;;;7.47;73.05
70684;BME280;58263;48.146;11.440;2024-01-25T09:02:52;96951.13;;;7.62;72.05
70684;BME280;58263;48.146;11.440;2024-01-25T09:05:18;96956.97;;;7.81;70.48
70684;BME280;58263;48.146;11.440;2024-01-25T09:07:43;96967.84;;;7.79;71.40
70684;BME280;58263;48.146;11.440;2024-01-25T09:10:09;96967.09;;;8.00;69.46
70684;BME280;58263;48.146;11.440;2024-01-25T09:12:35;96975.13;;;8.30;68.76
70684;BME280;58263;48.146;11.440;2024-01-25T09:15:01;96986.38;;;8.25;68.41
70684;BME280;58263;48.146;11.440;2024-01-25T09:17:26;96981.84;;;8.11;68.06
70684;BME280;58263;48.146;11.440;2024-01-25T09:19:51;96973.50;;;8.14;67.92
70684;BME280;58263;48.146;11.440;2024-01-25T09:22:17;96981.84;;;7.96;67.57
70684;BME280;58263;48.146;11.440;2024-01-25T09:24:47;96982.22;;;7.93;67.46
70684;BME280;58263;48.146;11.440;2024-01-25T09:27:13;96988.75;;;7.90;68.02
70684;BME280;58263;48.146;11.440;2024-01-25T09:29:41;96989.53;;;8.29;66.79
70684;BME280;58263;48.146;11.440;2024-01-25T09:32:07;96996.53;;;8.45;66.08
70684;BME280;58263;48.146;11.440;2024-01-25T09:34:37;96990.66;;;8.50;66.59
70684;BME280;58263;48.146;11.440;2024-01-25T09:37:02;96992.72;;;8.39;65.43
70684;BME280;58263;48.146;11.440;2024-01-25T09:39:28;96993.50;;;8.63;65.75
70684;BME280;58263;48.146;11.440;2024-01-25T09:41:54;96986.91;;;8.66;65.88
70684;BME280;58263;48.146;11.440;2024-01-25T09:44:19;96990.41;;;8.81;65.47
70684;BME280;58263;48.146;11.440;2024-01-25T09:46:45;96985.16;;;8.73;66.15
70684;BME280;58263;48.146;11.440;2024-01-25T09:49:11;96987.66;;;8.74;65.61
70684;BME280;58263;48.146;11.440;2024-01-25T09:51:38;96986.72;;;9.04;65.92
70684;BME280;58263;48.146;11.440;2024-01-25T09:54:04;96987.34;;;8.84;64.67
70684;BME280;58263;48.146;11.440;2024-01-25T09:56:32;96989.00;;;8.85;64.66
70684;BME280;58263;48.146;11.440;2024-01-25T09:58:58;96988.78;;;9.02;64.59
70684;BME280;58263;48.146;11.440;2024-01-25T10:01:23;96991.47;;;9.02;63.54
70684;BME280;58263;48.146;11.440;2024-01-25T10:03:49;96996.47;;;8.90;63.71
70684;BME280;58263;48.146;11.440;2024-01-25T10:06:15;96997.00;;;9.00;63.21
70684;BME280;58263;48.146;11.440;2024-01-25T10:08:41;96996.56;;;8.82;62.11
70684;BME280;58263;48.146;11.440;2024-01-25T10:11:07;96993.69;;;9.20;62.10
70684;BME280;58263;48.146;11.440;2024-01-25T10:13:43;96995.47;;;9.12;62.14
70684;BME280;58263;48.146;11.440;2024-01-25T10:16:12;96998.41;;;8.96;62.52
70684;BME280;58263;48.146;11.440;2024-01-25T10:18:38;96999.03;;;8.98;62.97
70684;BME280;58263;48.146;11.440;2024-01-25T10:21:04;97007.84;;;9.13;61.68
70684;BME280;58263;48.146;11.440;2024-01-25T10:23:30;97003.00;;;9.24;62.18
70684;BME280;58263;48.146;11.440;2024-01-25T10:25:58;96995.63;;;9.26;62.03
70684;BME280;58263;48.146;11.440;2024-01-25T10:28:24;96998.63;;;9.01;61.68
70684;BME280;58263;48.146;11.440;2024-01-25T10:30:56;96992.81;;;9.34;62.11
70684;BME280;58263;48.146;11.440;2024-01-25T10:33:24;96987.59;;;9.47;59.38
70684;BME280;58263;48.146;11.440;2024-01-25T10:35:49;96977.47;;;9.71;59.83
70684;BME280;58263;48.146;11.440;2024-01-25T10:38:20;96983.44;;;10.02;59.84
70684;BME280;58263;48.146;11.440;2024-01-25T10:40:46;96985.50;;;10.00;60.74
70684;BME280;58263;48.146;11.440;2024-01-25T10:43:11;96983.09;;;9.55;61.84
70684;BME280;58263;48.146;11.440;2024-01-25T10:45:37;96974.69;;;9.58;61.84
70684;BME280;58263;48.146;11.440;2024-01-25T10:48:02;96971.16;;;9.79;62.24
70684;BME280;58263;48.146;11.440;2024-01-25T10:50:28;96970.47;;;9.48;61.55
70684;BME280;58263;48.146;11.440;2024-01-25T10:52:53;96961.31;;;9.36;62.28
70684;BME280;58263;48.146;11.440;2024-01-25T10:55:19;96958.00;;;10.19;60.76
70684;BME280;58263;48.146;11.440;2024-01-25T10:57:45;96957.09;;;10.05;59.37
70684;BME280;58263;48.146;11.440;2024-01-25T11:00:13;96950.69;;;10.41;59.41
70684;BME280;58263;48.146;11.440;2024-01-25T11:02:40;96954.47;;;10.54;58.60
70684;BME280;58263;48.146;11.440;2024-01-25T11:05:12;96947.03;;;10.49;58.96
70684;BME280;58263;48.146;11.440;2024-01-25T11:07:45;96950.50;;;10.08;57.88
70684;BME280;58263;48.146;11.440;2024-01-25T11:10:14;96940.84;;;10.13;57.69
70684;BME280;58263;48.146;11.440;2024-01-25T11:12:59;96935.47;;;10.48;57.39
70684;BME280;58263;48.146;11.440;2024-01-25T11:17:58;96931.25;;;10.88;56.63
70684;BME280;58263;48.146;11.440;2024-01-25T11:20:25;96924.53;;;10.50;56.18
70684;BME280;58263;48.146;11.440;2024-01-25T11:23:03;96926.66;;;10.68;56.96
70684;BME280;58263;48.146;11.440;2024-01-25T11:25:33;96911.88;;;11.12;55.59
70684;BME280;58263;48.146;11.440;2024-01-25T11:28:00;96914.16;;;11.02;56.00
70684;BME280;58263;48.146;11.440;2024-01-25T11:30:28;96912.94;;;11.05;55.86
70684;BME280;58263;48.146;11.440;2024-01-25T11:32:53;96908.19;;;11.67;54.07
70684;BME280;58263;48.146;11.440;2024-01-25T11:35:19;96909.63;;;11.63;54.69
70684;BME280;58263;48.146;11.440;2024-01-25T11:37:46;96903.78;;;12.06;53.43
70684;BME280;58263;48.146;11.440;2024-01-25T11:40:13;96894.53;;;12.47;51.69
70684;BME280;58263;48.146;11.440;2024-01-25T11:42:39;96893.97;;;12.39;51.20
70684;BME280;58263;48.146;11.440;2024-01-25T11:45:06;96883.88;;;12.73;50.08
70684;BME280;58263;48.146;11.440;2024-01-25T11:47:32;96882.88;;;12.67;48.97
70684;BME280;58263;48.146;11.440;2024-01-25T11:49:58;96885.81;;;12.59;49.93
70684;BME280;58263;48.146;11.440;2024-01-25T11:52:23;96860.25;;;13.07;49.05
70684;BME280;58263;48.146;11.440;2024-01-25T11:54:48;96864.53;;;12.82;49.00
70684;BME280;58263;48.146;11.440;2024-01-25T11:57:14;96856.03;;;12.47;51.21
70684;BME280;58263;48.146;11.440;2024-01-25T11:59:39;96852.69;;;13.15;49.75
70684;BME280;58263;48.146;11.440;2024-01-25T12:02:04;96852.06;;;13.20;48.97
70684;BME280;58263;48.146;11.440;2024-01-25T12:04:30;96849.66;;;13.37;49.19
70684;BME280;58263;48.146;11.440;2024-01-25T12:06:55;96846.75;;;13.32;48.45
70684;BME280;58263;48.146;11.440;2024-01-25T12:09:20;96850.13;;;12.70;49.15
70684;BME280;58263;48.146;11.440;2024-01-25T12:11:49;96836.88;;;13.26;49.00
70684;BME280;58263;48.146;11.440;2024-01-25T12:14:16;96846.41;;;12.96;49.17
70684;BME280;58263;48.146;11.440;2024-01-25T12:16:41;96845.09;;;12.80;49.59
70684;BME280;58263;48.146;11.440;2024-01-25T12:19:07;96834.28;;;13.12;49.10
70684;BME280;58263;48.146;11.440;2024-01-25T12:21:35;96832.63;;;13.43;48.45
70684;BME280;58263;48.146;11.440;2024-01-25T12:24:02;96837.53;;;13.72;47.12
70684;BME280;58263;48.146;11.440;2024-01-25T12:26:27;96838.50;;;14.14;47.20
70684;BME280;58263;48.146;11.440;2024-01-25T12:28:52;96844.50;;;13.79;47.98
70684;BME280;58263;48.146;11.440;2024-01-25T12:31:17;96841.63;;;13.56;48.58
70684;BME280;58263;48.146;11.440;2024-01-25T12:33:43;96836.66;;;13.02;49.56
70684;BME280;58263;48.146;11.440;2024-01-25T12:36:09;96846.63;;;12.70;49.43
70684;BME280;58263;48.146;11.440;2024-01-25T12:38:34;96838.25;;;12.46;50.33
70684;BME280;58263;48.146;11.440;2024-01-25T12:41:00;96836.84;;;12.75;49.42
70684;BME280;58263;48.146;11.440;2024-01-25T12:43:26;96828.13;;;12.73;49.35
70684;BME280;58263;48.146;11.440;2024-01-25T12:45:51;96828.63;;;12.95;48.58
70684;BME280;58263;48.146;11.440;2024-01-25T12:48:17;96826.03;;;13.32;46.81
70684;BME280;58263;48.146;11.440;2024-01-25T12:50:42;96824.06;;;13.46;46.95
70684;BME280;58263;48.146;11.440;2024-01-25T12:53:10;96823.72;;;13.61;46.54